createdAt,value
2018-03-24T00:00:52.789Z,2.52
2018-03-24T00:01:52.689Z,2.51
2018-03-24T00:02:52.656Z,2.53
2018-03-24T00:03:52.672Z,2.48
2018-03-24T00:04:52.636Z,2.44
2018-03-24T00:05:52.619Z,2.44
2018-03-24T00:06:52.612Z,2.33
2018-03-24T00:07:52.700Z,2.40
2018-03-24T00:08:52.624Z,2.31
2018-03-24T00:09:52.600Z,2.28
2018-03-24T00:10:52.632Z,2.20
2018-03-24T00:11:52.620Z,2.19
2018-03-24T00:12:52.629Z,2.17
2018-03-24T00:13:52.576Z,2.16
2018-03-24T00:14:52.568Z,2.16
2018-03-24T00:15:52.584Z,2.27
2018-03-24T00:16:52.643Z,2.31
2018-03-24T00:17:52.575Z,2.33
2018-03-24T00:18:52.558Z,2.27
2018-03-24T00:19:52.550Z,2.12
2018-03-24T00:20:52.575Z,2.34
2018-03-24T00:21:52.533Z,2.33
2018-03-24T00:22:52.605Z,2.28
2018-03-24T00:23:52.523Z,2.33
2018-03-24T00:24:52.533Z,2.34
2018-03-24T00:25:52.541Z,2.33
2018-03-24T00:26:52.524Z,2.30
2018-03-24T00:27:52.583Z,2.37
2018-03-24T00:28:52.522Z,2.23
2018-03-24T00:29:52.519Z,2.27
2018-03-24T00:30:52.493Z,2.26
2018-03-24T00:31:52.506Z,2.26
2018-03-24T00:32:52.532Z,2.31
2018-03-24T00:33:52.500Z,2.33
2018-03-24T00:34:52.488Z,2.40
2018-03-24T00:35:52.485Z,2.31
2018-03-24T00:36:52.490Z,2.37
2018-03-24T00:37:52.507Z,2.38
2018-03-24T00:38:52.473Z,2.49
2018-03-24T00:39:52.461Z,2.61
2018-03-24T00:40:52.485Z,2.69
2018-03-24T00:41:52.448Z,2.70
2018-03-24T00:42:52.489Z,2.51
2018-03-24T00:43:52.433Z,2.59
2018-03-24T00:44:52.439Z,2.51
2018-03-24T00:45:52.442Z,2.49
2018-03-24T00:46:52.427Z,2.48
2018-03-24T00:47:52.502Z,2.56
2018-03-24T00:48:52.432Z,2.49
2018-03-24T00:49:52.430Z,2.56
2018-03-24T00:50:52.432Z,2.53
2018-03-24T00:51:52.420Z,2.55
2018-03-24T00:52:52.435Z,2.48
2018-03-24T00:53:52.410Z,2.49
2018-03-24T00:54:52.399Z,2.53
2018-03-24T00:55:52.392Z,2.66
2018-03-24T00:56:52.397Z,2.58
2018-03-24T00:57:52.413Z,2.74
2018-03-24T00:58:52.387Z,2.71
2018-03-24T00:59:52.381Z,2.79
2018-03-24T01:00:52.366Z,2.74
2018-03-24T01:01:52.363Z,2.73
2018-03-24T01:02:52.405Z,2.55
2018-03-24T01:03:52.404Z,2.49
2018-03-24T01:04:52.355Z,2.46
2018-03-24T01:05:52.381Z,2.45
2018-03-24T01:06:52.333Z,2.41
2018-03-24T01:07:52.385Z,2.28
2018-03-24T01:08:52.344Z,2.45
2018-03-24T01:09:52.336Z,2.52
2018-03-24T01:10:52.324Z,2.48
2018-03-24T01:11:52.326Z,2.48
2018-03-24T01:12:52.370Z,2.44
2018-03-24T01:13:52.306Z,2.41
2018-03-24T01:14:52.317Z,2.41
2018-03-24T01:15:52.297Z,2.48
2018-03-24T01:16:52.799Z,2.41
2018-03-24T01:17:52.346Z,2.44
2018-03-24T01:18:52.279Z,2.46
2018-03-24T01:19:52.297Z,2.46
2018-03-24T01:20:52.278Z,2.34
2018-03-24T01:21:52.292Z,2.41
2018-03-24T01:22:52.797Z,2.40
2018-03-24T01:23:52.276Z,2.37
2018-03-24T01:24:52.265Z,2.46
2018-03-24T01:25:52.272Z,2.49
2018-03-24T01:26:52.247Z,2.48
2018-03-24T01:27:52.290Z,2.48
2018-03-24T01:28:52.260Z,2.45
2018-03-24T01:29:53.004Z,2.30
2018-03-24T01:30:52.246Z,2.28
2018-03-24T01:31:52.222Z,2.33
2018-03-24T01:32:52.272Z,2.34
2018-03-24T01:33:52.223Z,2.34
2018-03-24T01:34:52.205Z,2.30
2018-03-24T01:35:52.222Z,2.33
2018-03-24T01:36:52.208Z,2.34
2018-03-24T01:37:52.251Z,2.28
2018-03-24T01:38:52.192Z,2.31
2018-03-24T01:39:52.194Z,2.38
2018-03-24T01:40:52.197Z,2.26
2018-03-24T01:41:52.256Z,2.37
2018-03-24T01:42:52.191Z,2.37
2018-03-24T01:43:52.170Z,2.45
2018-03-24T01:44:52.160Z,2.49
2018-03-24T01:45:52.148Z,2.52
2018-03-24T01:46:52.153Z,2.45
2018-03-24T01:47:52.213Z,2.30
2018-03-24T01:48:52.152Z,2.40
2018-03-24T01:49:52.148Z,2.38
2018-03-24T01:50:52.169Z,2.35
2018-03-24T01:51:52.137Z,2.45
2018-03-24T01:52:52.182Z,2.26
2018-03-24T01:53:52.128Z,2.34
2018-03-24T01:54:52.114Z,2.37
2018-03-24T01:55:52.130Z,2.37
2018-03-24T01:56:52.161Z,2.38
2018-03-24T01:57:52.119Z,2.49
2018-03-24T01:58:52.110Z,2.48
2018-03-24T01:59:52.097Z,2.45
2018-03-24T02:00:52.146Z,2.44
2018-03-24T02:01:52.137Z,2.51
2018-03-24T02:02:52.098Z,2.52
2018-03-24T02:03:52.117Z,2.52
2018-03-24T02:04:52.077Z,2.53
2018-03-24T02:05:52.065Z,2.58
2018-03-24T02:06:52.146Z,2.44
2018-03-24T02:07:52.074Z,2.46
2018-03-24T02:08:52.066Z,2.38
2018-03-24T02:09:52.082Z,2.44
2018-03-24T02:10:52.071Z,2.41
2018-03-24T02:11:52.144Z,2.44
2018-03-24T02:12:52.073Z,2.48
2018-03-24T02:13:52.073Z,2.48
2018-03-24T02:14:52.043Z,2.33
2018-03-24T02:15:52.039Z,2.37
2018-03-24T02:16:52.073Z,2.26
2018-03-24T02:17:52.025Z,2.23
2018-03-24T02:18:52.020Z,2.26
2018-03-24T02:19:52.019Z,2.28
2018-03-24T02:20:52.044Z,2.27
2018-03-24T02:21:52.044Z,2.34
2018-03-24T02:22:52.027Z,2.37
2018-03-24T02:23:51.979Z,2.26
2018-03-24T02:24:52.000Z,2.30
2018-03-24T02:25:51.988Z,2.46
2018-03-24T02:26:52.027Z,2.40
2018-03-24T02:27:51.974Z,2.31
2018-03-24T02:28:51.975Z,2.28
2018-03-24T02:29:51.958Z,2.28
2018-03-24T02:30:51.995Z,2.26
2018-03-24T02:31:52.006Z,2.28
2018-03-24T02:32:51.953Z,2.40
2018-03-24T02:33:51.946Z,2.41
2018-03-24T02:34:51.979Z,2.31
2018-03-24T02:35:51.958Z,2.35
2018-03-24T02:36:52.006Z,2.34
2018-03-24T02:37:51.945Z,2.33
2018-03-24T02:38:51.920Z,2.30
2018-03-24T02:39:51.915Z,2.38
2018-03-24T02:40:51.918Z,2.33
2018-03-24T02:41:51.956Z,2.10
2018-03-24T02:42:51.930Z,2.22
2018-03-24T02:43:51.909Z,2.19
2018-03-24T02:44:51.895Z,2.20
2018-03-24T02:45:51.904Z,2.17
2018-03-24T02:46:51.952Z,2.20
2018-03-24T02:47:51.908Z,2.17
2018-03-24T02:48:51.866Z,2.23
2018-03-24T02:49:51.883Z,2.16
2018-03-24T02:50:54.931Z,2.20
2018-03-24T02:51:51.933Z,2.35
2018-03-24T02:52:51.876Z,2.26
2018-03-24T02:53:51.864Z,2.31
2018-03-24T02:54:51.857Z,2.38
2018-03-24T02:55:51.865Z,2.20
2018-03-24T02:56:51.886Z,2.30
2018-03-24T02:57:51.858Z,2.27
2018-03-24T02:58:51.834Z,2.34
2018-03-24T02:59:51.860Z,2.35
2018-03-24T03:00:51.825Z,2.22
2018-03-24T03:01:51.827Z,2.19
2018-03-24T03:02:51.855Z,2.17
2018-03-24T03:03:51.817Z,2.13
2018-03-24T03:04:51.824Z,2.06
2018-03-24T03:05:51.803Z,2.02
2018-03-24T03:06:51.808Z,2.02
2018-03-24T03:07:51.844Z,2.12
2018-03-24T03:08:51.800Z,2.02
2018-03-24T03:09:51.784Z,2.08
2018-03-24T03:10:51.770Z,1.97
2018-03-24T03:11:51.781Z,2.10
2018-03-24T03:12:51.834Z,2.08
2018-03-24T03:13:51.763Z,2.19
2018-03-24T03:14:51.741Z,2.10
2018-03-24T03:15:51.768Z,2.19
2018-03-24T03:16:52.292Z,2.12
2018-03-24T03:17:51.794Z,2.13
2018-03-24T03:18:51.749Z,2.12
2018-03-24T03:19:51.743Z,2.04
2018-03-24T03:20:51.722Z,1.97
2018-03-24T03:21:51.727Z,2.01
2018-03-24T03:22:51.769Z,2.01
2018-03-24T03:23:51.730Z,1.91
2018-03-24T03:24:51.716Z,2.02
2018-03-24T03:25:51.712Z,1.99
2018-03-24T03:26:51.767Z,2.01
2018-03-24T03:27:51.763Z,2.09
2018-03-24T03:28:51.708Z,2.04
2018-03-24T03:29:51.695Z,2.10
2018-03-24T03:30:51.665Z,2.10
2018-03-24T03:31:51.689Z,2.12
2018-03-24T03:32:51.733Z,2.10
2018-03-24T03:33:51.664Z,2.13
2018-03-24T03:34:51.662Z,1.99
2018-03-24T03:35:51.648Z,1.98
2018-03-24T03:36:51.715Z,1.93
2018-03-24T03:37:51.652Z,1.87
2018-03-24T03:38:51.649Z,1.89
2018-03-24T03:39:51.646Z,1.91
2018-03-24T03:40:51.632Z,1.97
2018-03-24T03:41:51.644Z,1.91
2018-03-24T03:42:51.664Z,1.97
2018-03-24T03:43:51.618Z,1.98
2018-03-24T03:44:51.618Z,2.02
2018-03-24T03:45:51.630Z,2.08
2018-03-24T03:46:51.629Z,1.99
2018-03-24T03:47:51.637Z,2.01
2018-03-24T03:48:51.586Z,2.01
2018-03-24T03:49:51.584Z,2.08
2018-03-24T03:50:51.603Z,2.12
2018-03-24T03:51:51.613Z,2.13
2018-03-24T03:52:51.566Z,2.15
2018-03-24T03:53:51.581Z,2.15
2018-03-24T03:54:51.570Z,2.06
2018-03-24T03:55:51.552Z,1.99
2018-03-24T03:56:51.632Z,1.98
2018-03-24T03:57:51.582Z,2.08
2018-03-24T03:58:51.572Z,2.13
2018-03-24T03:59:51.546Z,2.26
2018-03-24T04:00:51.537Z,2.28
2018-03-24T04:01:51.578Z,2.30
2018-03-24T04:02:51.535Z,2.33
2018-03-24T04:03:51.513Z,2.34
2018-03-24T04:04:51.524Z,2.38
2018-03-24T04:05:51.502Z,2.27
2018-03-24T04:06:51.560Z,2.20
2018-03-24T04:07:51.502Z,2.12
2018-03-24T04:08:51.487Z,1.99
2018-03-24T04:09:51.511Z,1.97
2018-03-24T04:10:51.484Z,1.94
2018-03-24T04:11:51.521Z,1.90
2018-03-24T04:12:51.495Z,1.73
2018-03-24T04:13:51.470Z,1.80
2018-03-24T04:14:51.468Z,1.75
2018-03-24T04:15:51.464Z,1.76
2018-03-24T04:16:51.496Z,1.89
2018-03-24T04:17:51.439Z,1.78
2018-03-24T04:18:51.444Z,1.76
2018-03-24T04:19:51.435Z,1.62
2018-03-24T04:20:51.440Z,1.69
2018-03-24T04:21:51.476Z,1.64
2018-03-24T04:22:51.447Z,1.61
2018-03-24T04:23:51.414Z,1.64
2018-03-24T04:24:51.429Z,1.65
2018-03-24T04:25:51.438Z,1.62
2018-03-24T04:26:51.443Z,1.71
2018-03-24T04:27:51.409Z,1.69
2018-03-24T04:28:51.426Z,1.71
2018-03-24T04:29:51.399Z,1.73
2018-03-24T04:30:51.409Z,1.73
2018-03-24T04:31:51.428Z,1.68
2018-03-24T04:32:51.414Z,1.71
2018-03-24T04:33:51.364Z,1.72
2018-03-24T04:34:51.372Z,1.79
2018-03-24T04:35:51.352Z,1.80
2018-03-24T04:36:51.397Z,1.85
2018-03-24T04:37:51.344Z,1.97
2018-03-24T04:38:51.355Z,2.02
2018-03-24T04:39:51.334Z,1.85
2018-03-24T04:40:51.358Z,1.87
2018-03-24T04:41:51.399Z,1.89
2018-03-24T04:42:51.341Z,2.01
2018-03-24T04:43:51.338Z,1.89
2018-03-24T04:44:51.315Z,1.91
2018-03-24T04:45:51.321Z,1.87
2018-03-24T04:46:51.353Z,1.93
2018-03-24T04:47:51.310Z,1.93
2018-03-24T04:48:51.283Z,1.94
2018-03-24T04:49:51.345Z,1.85
2018-03-24T04:50:51.303Z,1.87
2018-03-24T04:51:51.367Z,1.89
2018-03-24T04:52:51.296Z,1.83
2018-03-24T04:53:51.274Z,1.76
2018-03-24T04:54:51.264Z,1.76
2018-03-24T04:55:51.255Z,1.72
2018-03-24T04:56:51.277Z,1.68
2018-03-24T04:57:51.283Z,1.60
2018-03-24T04:58:51.248Z,1.65
2018-03-24T04:59:51.246Z,1.58
2018-03-24T05:00:51.234Z,1.62
2018-03-24T05:01:51.292Z,1.58
2018-03-24T05:02:51.232Z,1.64
2018-03-24T05:03:51.221Z,1.65
2018-03-24T05:04:51.229Z,1.62
2018-03-24T05:05:51.231Z,1.71
2018-03-24T05:06:51.253Z,1.71
2018-03-24T05:07:51.186Z,1.79
2018-03-24T05:08:51.228Z,1.71
2018-03-24T05:09:51.209Z,1.65
2018-03-24T05:10:51.188Z,1.78
2018-03-24T05:11:51.220Z,1.76
2018-03-24T05:12:51.182Z,1.83
2018-03-24T05:13:51.211Z,1.87
2018-03-24T05:14:51.162Z,1.91
2018-03-24T05:15:51.162Z,1.98
2018-03-24T05:16:51.202Z,1.94
2018-03-24T05:17:51.145Z,2.06
2018-03-24T05:18:51.166Z,2.04
2018-03-24T05:19:51.127Z,1.98
2018-03-24T05:20:51.130Z,1.98
2018-03-24T05:21:51.165Z,1.94
2018-03-24T05:22:51.129Z,1.99
2018-03-24T05:23:51.136Z,1.94
2018-03-24T05:24:51.110Z,2.02
2018-03-24T05:25:51.115Z,2.12
2018-03-24T05:26:51.151Z,2.16
2018-03-24T05:27:51.106Z,2.17
2018-03-24T05:28:51.093Z,2.15
2018-03-24T05:29:51.088Z,2.16
2018-03-24T05:30:51.073Z,2.28
2018-03-24T05:31:51.122Z,2.37
2018-03-24T05:32:51.074Z,2.17
2018-03-24T05:33:51.083Z,1.98
2018-03-24T05:34:51.084Z,1.87
2018-03-24T05:35:51.099Z,1.80
2018-03-24T05:36:51.055Z,1.78
2018-03-24T05:37:51.038Z,1.76
2018-03-24T05:38:51.040Z,1.89
2018-03-24T05:39:51.063Z,2.12
2018-03-24T05:40:51.091Z,2.19
2018-03-24T05:41:51.028Z,2.33
2018-03-24T05:42:51.013Z,2.49
2018-03-24T05:43:51.025Z,2.71
2018-03-24T05:44:51.022Z,2.77
2018-03-24T05:45:51.042Z,3.05
2018-03-24T05:46:50.999Z,3.23
2018-03-24T05:47:51.005Z,3.52
2018-03-24T05:48:51.003Z,3.54
2018-03-24T05:49:50.981Z,3.60
2018-03-24T05:50:51.044Z,3.75
2018-03-24T05:51:51.030Z,3.70
2018-03-24T05:52:50.975Z,3.75
2018-03-24T05:53:50.988Z,3.79
2018-03-24T05:54:50.987Z,3.82
2018-03-24T05:55:50.963Z,3.90
2018-03-24T05:56:50.998Z,4.06
2018-03-24T05:57:50.961Z,4.14
2018-03-24T05:58:50.949Z,4.25
2018-03-24T05:59:50.931Z,4.34
2018-03-24T06:00:50.989Z,4.37
2018-03-24T06:01:50.977Z,4.37
2018-03-24T06:02:50.943Z,4.52
2018-03-24T06:03:50.941Z,4.67
2018-03-24T06:04:50.921Z,4.89
2018-03-24T06:05:50.933Z,4.89
2018-03-24T06:06:50.958Z,4.96
2018-03-24T06:07:50.916Z,4.89
2018-03-24T06:08:50.922Z,4.96
2018-03-24T06:09:50.932Z,5.14
2018-03-24T06:10:50.924Z,5.12
2018-03-24T06:11:50.935Z,5.12
2018-03-24T06:12:50.910Z,5.16
2018-03-24T06:13:50.885Z,5.28
2018-03-24T06:14:50.885Z,5.46
2018-03-24T06:15:50.875Z,5.38
2018-03-24T06:16:50.929Z,5.74
2018-03-24T06:17:50.885Z,6.19
2018-03-24T06:18:50.873Z,6.48
2018-03-24T06:19:50.883Z,6.62
2018-03-24T06:20:50.865Z,6.59
2018-03-24T06:21:50.898Z,6.51
2018-03-24T06:22:50.858Z,6.35
2018-03-24T06:23:50.862Z,6.22
2018-03-24T06:24:50.846Z,6.48
2018-03-24T06:25:50.873Z,6.97
2018-03-24T06:26:50.901Z,7.58
2018-03-24T06:27:50.849Z,7.97
2018-03-24T06:28:50.875Z,8.11
2018-03-24T06:29:50.871Z,7.96
2018-03-24T06:30:50.861Z,8.08
2018-03-24T06:31:50.881Z,8.15
2018-03-24T06:32:50.857Z,8.39
2018-03-24T06:33:50.856Z,8.57
2018-03-24T06:34:50.853Z,8.91
2018-03-24T06:35:50.847Z,9.46
2018-03-24T06:36:50.901Z,9.83
2018-03-24T06:37:50.855Z,10.10
2018-03-24T06:38:50.846Z,10.19
2018-03-24T06:39:50.855Z,9.99
2018-03-24T06:40:50.844Z,9.39
2018-03-24T06:41:50.879Z,9.16
2018-03-24T06:42:50.822Z,9.09
2018-03-24T06:43:50.829Z,9.18
2018-03-24T06:44:50.933Z,9.63
2018-03-24T06:45:50.847Z,9.64
2018-03-24T06:46:50.874Z,9.40
2018-03-24T06:47:50.838Z,9.12
2018-03-24T06:48:50.873Z,8.72
2018-03-24T06:49:50.839Z,8.51
2018-03-24T06:50:50.854Z,8.63
2018-03-24T06:51:50.887Z,9.09
2018-03-24T06:52:50.873Z,9.60
2018-03-24T06:53:50.831Z,9.82
2018-03-24T06:54:50.834Z,10.58
2018-03-24T06:55:50.886Z,11.02
2018-03-24T06:56:50.898Z,11.54
2018-03-24T06:57:50.837Z,11.80
2018-03-24T06:58:50.848Z,11.90
2018-03-24T06:59:50.850Z,11.78
2018-03-24T07:00:50.843Z,12.13
2018-03-24T07:01:50.874Z,12.06
2018-03-24T07:02:50.863Z,12.23
2018-03-24T07:03:50.858Z,12.51
2018-03-24T07:04:50.866Z,12.75
2018-03-24T07:05:50.856Z,11.93
2018-03-24T07:06:50.923Z,11.27
2018-03-24T07:07:50.872Z,10.96
2018-03-24T07:08:50.874Z,9.85
2018-03-24T07:09:51.290Z,9.71
2018-03-24T07:10:50.875Z,10.00
2018-03-24T07:11:50.910Z,10.22
2018-03-24T07:12:50.886Z,10.68
2018-03-24T07:13:50.874Z,10.88
2018-03-24T07:14:50.925Z,10.92
2018-03-24T07:15:50.924Z,11.19
2018-03-24T07:16:50.934Z,11.35
2018-03-24T07:17:50.913Z,11.70
2018-03-24T07:18:50.922Z,11.90
2018-03-24T07:19:50.892Z,12.42
2018-03-24T07:20:50.902Z,12.56
2018-03-24T07:21:50.952Z,12.77
2018-03-24T07:22:50.911Z,12.16
2018-03-24T07:23:50.928Z,12.06
2018-03-24T07:24:50.904Z,12.38
2018-03-24T07:25:50.924Z,12.70
2018-03-24T07:26:50.959Z,13.27
2018-03-24T07:27:50.925Z,13.77
2018-03-24T07:28:50.933Z,13.98
2018-03-24T07:29:50.981Z,13.84
2018-03-24T07:30:50.954Z,13.54
2018-03-24T07:31:51.794Z,13.56
2018-03-24T07:32:51.000Z,13.24
2018-03-24T07:33:50.965Z,13.27
2018-03-24T07:34:50.967Z,13.62
2018-03-24T07:35:50.971Z,13.84
2018-03-24T07:36:51.000Z,13.74
2018-03-24T07:37:51.007Z,13.80
2018-03-24T07:38:50.973Z,14.07
2018-03-24T07:39:50.987Z,14.09
2018-03-24T07:40:51.020Z,13.95
2018-03-24T07:41:51.030Z,14.31
2018-03-24T07:42:51.019Z,14.50
2018-03-24T07:43:51.017Z,14.61
2018-03-24T07:44:51.016Z,14.83
2018-03-24T07:45:51.059Z,14.75
2018-03-24T07:46:51.012Z,14.95
2018-03-24T07:47:51.036Z,15.06
2018-03-24T07:48:51.044Z,15.09
2018-03-24T07:49:51.057Z,15.28
2018-03-24T07:50:51.123Z,15.38
2018-03-24T07:51:51.074Z,15.59
2018-03-24T07:52:51.083Z,15.60
2018-03-24T07:53:51.061Z,15.45
2018-03-24T07:54:51.083Z,15.20
2018-03-24T07:55:51.149Z,14.84
2018-03-24T07:56:51.128Z,14.81
2018-03-24T07:57:51.112Z,14.74
2018-03-24T07:58:51.098Z,15.13
2018-03-24T07:59:51.123Z,15.39
2018-03-24T08:00:51.147Z,15.78
2018-03-24T08:01:51.166Z,15.61
2018-03-24T08:02:51.134Z,15.31
2018-03-24T08:03:51.142Z,15.39
2018-03-24T08:04:51.150Z,15.11
2018-03-24T08:05:51.199Z,14.65
2018-03-24T08:06:51.179Z,14.39
2018-03-24T08:07:51.172Z,14.07
2018-03-24T08:08:51.209Z,13.74
2018-03-24T08:09:51.220Z,13.74
2018-03-24T08:10:51.248Z,13.76
2018-03-24T08:11:51.226Z,13.77
2018-03-24T08:12:51.223Z,13.04
2018-03-24T08:13:51.229Z,12.46
2018-03-24T08:14:51.273Z,13.03
2018-03-24T08:15:51.276Z,13.56
2018-03-24T08:16:51.334Z,14.37
2018-03-24T08:17:51.252Z,14.72
2018-03-24T08:18:51.251Z,15.31
2018-03-24T08:19:51.345Z,15.61
2018-03-24T08:20:51.292Z,15.27
2018-03-24T08:21:51.285Z,14.21
2018-03-24T08:22:51.294Z,13.44
2018-03-24T08:23:51.336Z,12.97
2018-03-24T08:24:51.322Z,13.47
2018-03-24T08:25:51.373Z,12.89
2018-03-24T08:26:51.407Z,12.24
2018-03-24T08:27:51.364Z,11.68
2018-03-24T08:28:51.345Z,12.11
2018-03-24T08:29:51.366Z,11.94
2018-03-24T08:30:51.429Z,11.70
2018-03-24T08:31:51.373Z,11.70
2018-03-24T08:32:51.400Z,11.21
2018-03-24T08:33:51.386Z,11.38
2018-03-24T08:34:51.418Z,12.02
2018-03-24T08:35:51.448Z,11.20
2018-03-24T08:36:51.421Z,9.63
2018-03-24T08:37:51.420Z,9.01
2018-03-24T08:38:52.447Z,8.79
2018-03-24T08:39:51.484Z,8.58
2018-03-24T08:40:51.490Z,8.57
2018-03-24T08:41:51.498Z,8.42
2018-03-24T08:42:51.463Z,9.02
2018-03-24T08:43:51.493Z,10.04
2018-03-24T08:44:51.504Z,11.27
2018-03-24T08:45:51.534Z,11.78
2018-03-24T08:46:51.482Z,12.05
2018-03-24T08:47:51.529Z,12.02
2018-03-24T08:48:51.545Z,11.28
2018-03-24T08:49:51.507Z,10.46
2018-03-24T08:50:51.577Z,10.65
2018-03-24T08:51:51.553Z,10.71
2018-03-24T08:52:51.525Z,10.71
2018-03-24T08:53:51.537Z,10.66
2018-03-24T08:54:51.547Z,9.79
2018-03-24T08:55:51.602Z,11.21
2018-03-24T08:56:51.544Z,12.01
2018-03-24T08:57:51.557Z,12.38
2018-03-24T08:58:52.465Z,13.07
2018-03-24T08:59:51.596Z,12.59
2018-03-24T09:00:51.649Z,12.16
2018-03-24T09:01:51.579Z,12.33
2018-03-24T09:02:51.569Z,12.54
2018-03-24T09:03:51.602Z,11.82
2018-03-24T09:04:51.634Z,11.24
2018-03-24T09:05:51.602Z,11.67
2018-03-24T09:06:51.636Z,12.48
2018-03-24T09:07:51.637Z,13.03
2018-03-24T09:08:51.667Z,13.18
2018-03-24T09:09:51.687Z,13.25
2018-03-24T09:10:51.644Z,13.94
2018-03-24T09:11:51.678Z,14.34
2018-03-24T09:12:51.661Z,14.29
2018-03-24T09:13:51.680Z,14.75
2018-03-24T09:14:51.766Z,13.84
2018-03-24T09:15:51.688Z,13.03
2018-03-24T09:16:51.723Z,12.21
2018-03-24T09:17:51.714Z,11.38
2018-03-24T09:18:51.726Z,11.41
2018-03-24T09:19:51.776Z,11.43
2018-03-24T09:20:51.746Z,11.68
2018-03-24T09:21:51.795Z,11.35
2018-03-24T09:22:51.779Z,11.11
2018-03-24T09:23:51.821Z,11.24
2018-03-24T09:24:51.965Z,11.70
2018-03-24T09:25:51.842Z,11.78
2018-03-24T09:26:51.855Z,12.06
2018-03-24T09:27:51.855Z,12.16
2018-03-24T09:28:51.854Z,12.41
2018-03-24T09:29:51.887Z,12.60
2018-03-24T09:30:51.920Z,12.13
2018-03-24T09:31:51.926Z,12.48
2018-03-24T09:32:51.907Z,12.74
2018-03-24T09:33:51.913Z,13.36
2018-03-24T09:34:51.936Z,13.25
2018-03-24T09:35:51.979Z,12.88
2018-03-24T09:36:51.942Z,11.31
2018-03-24T09:37:51.962Z,11.21
2018-03-24T09:38:51.990Z,10.43
2018-03-24T09:39:52.026Z,10.14
2018-03-24T09:40:52.046Z,9.53
2018-03-24T09:41:52.037Z,9.45
2018-03-24T09:42:52.012Z,9.48
2018-03-24T09:43:52.028Z,10.28
2018-03-24T09:44:52.139Z,11.44
2018-03-24T09:45:52.102Z,12.89
2018-03-24T09:46:52.062Z,13.14
2018-03-24T09:47:52.085Z,12.70
2018-03-24T09:48:52.091Z,12.52
2018-03-24T09:49:52.154Z,12.11
2018-03-24T09:50:52.088Z,12.42
2018-03-24T09:51:52.103Z,10.65
2018-03-24T09:52:52.174Z,10.68
2018-03-24T09:53:52.132Z,11.11
2018-03-24T09:54:52.189Z,10.83
2018-03-24T09:55:52.157Z,11.01
2018-03-24T09:56:52.168Z,11.01
2018-03-24T09:57:52.549Z,10.34
2018-03-24T09:58:52.207Z,10.26
2018-03-24T09:59:52.252Z,10.83
2018-03-24T10:00:52.255Z,11.17
2018-03-24T10:01:52.214Z,11.28
2018-03-24T10:02:52.236Z,10.88
2018-03-24T10:03:52.270Z,12.29
2018-03-24T10:04:52.417Z,12.06
2018-03-24T10:05:52.273Z,12.41
2018-03-24T10:06:52.294Z,12.87
2018-03-24T10:07:52.302Z,11.85
2018-03-24T10:08:52.319Z,12.70
2018-03-24T10:09:52.396Z,12.92
2018-03-24T10:10:52.328Z,12.84
2018-03-24T10:11:52.386Z,12.26
2018-03-24T10:12:52.382Z,11.71
2018-03-24T10:13:52.389Z,11.82
2018-03-24T10:14:52.447Z,13.29
2018-03-24T10:15:52.409Z,14.34
2018-03-24T10:16:52.424Z,15.02
2018-03-24T10:17:52.436Z,14.80
2018-03-24T10:18:52.449Z,14.19
2018-03-24T10:19:52.506Z,13.33
2018-03-24T10:20:52.458Z,12.19
2018-03-24T10:21:52.500Z,11.20
2018-03-24T10:22:52.519Z,11.32
2018-03-24T10:23:52.565Z,12.27
2018-03-24T10:24:52.599Z,11.93
2018-03-24T10:25:52.578Z,11.62
2018-03-24T10:26:52.575Z,12.54
2018-03-24T10:27:52.599Z,12.54
2018-03-24T10:28:53.075Z,13.24
2018-03-24T10:29:52.630Z,13.36
2018-03-24T10:30:52.639Z,13.49
2018-03-24T10:31:52.642Z,13.06
2018-03-24T10:32:52.673Z,13.02
2018-03-24T10:33:52.736Z,13.59
2018-03-24T10:34:52.686Z,13.46
2018-03-24T10:35:52.717Z,12.70
2018-03-24T10:36:53.233Z,12.41
2018-03-24T10:37:52.722Z,12.70
2018-03-24T10:38:52.790Z,14.16
2018-03-24T10:39:52.800Z,13.25
2018-03-24T10:40:52.792Z,14.43
2018-03-24T10:41:52.800Z,13.87
2018-03-24T10:42:52.801Z,13.36
2018-03-24T10:43:52.866Z,12.02
2018-03-24T10:44:52.918Z,12.09
2018-03-24T10:45:52.866Z,12.24
2018-03-24T10:46:52.917Z,12.24
2018-03-24T10:47:52.897Z,11.99
2018-03-24T10:48:52.963Z,11.78
2018-03-24T10:49:52.939Z,12.75
2018-03-24T10:50:52.952Z,13.07
2018-03-24T10:51:52.970Z,13.58
2018-03-24T10:52:52.986Z,13.84
2018-03-24T10:53:53.050Z,14.07
2018-03-24T10:54:53.014Z,12.52
2018-03-24T10:55:53.030Z,13.33
2018-03-24T10:56:53.053Z,14.44
2018-03-24T10:57:53.072Z,13.58
2018-03-24T10:58:53.144Z,13.00
2018-03-24T10:59:53.091Z,12.74
2018-03-24T11:00:53.116Z,12.48
2018-03-24T11:01:53.141Z,13.21
2018-03-24T11:02:53.179Z,13.51
2018-03-24T11:03:53.218Z,12.12
2018-03-24T11:04:53.257Z,13.24
2018-03-24T11:05:53.202Z,14.06
2018-03-24T11:06:53.250Z,14.19
2018-03-24T11:07:53.229Z,13.96
2018-03-24T11:08:53.296Z,12.79
2018-03-24T11:09:53.268Z,12.29
2018-03-24T11:10:53.294Z,11.65
2018-03-24T11:11:53.296Z,11.74
2018-03-24T11:12:53.320Z,12.37
2018-03-24T11:13:53.390Z,12.39
2018-03-24T11:14:54.071Z,12.26
2018-03-24T11:15:53.384Z,12.71
2018-03-24T11:16:53.396Z,12.60
2018-03-24T11:17:53.452Z,12.95
2018-03-24T11:18:53.462Z,12.85
2018-03-24T11:19:53.454Z,12.46
2018-03-24T11:20:53.480Z,13.00
2018-03-24T11:21:53.473Z,13.22
2018-03-24T11:22:53.502Z,12.88
2018-03-24T11:23:53.556Z,11.82
2018-03-24T11:24:53.588Z,12.21
2018-03-24T11:25:53.557Z,11.90
2018-03-24T11:26:53.553Z,11.67
2018-03-24T11:27:53.591Z,11.38
2018-03-24T11:28:53.634Z,11.68
2018-03-24T11:29:53.615Z,12.39
2018-03-24T11:30:53.637Z,12.12
2018-03-24T11:31:53.647Z,11.80
2018-03-24T11:32:53.665Z,11.28
2018-03-24T11:33:53.724Z,11.24
2018-03-24T11:34:53.709Z,11.43
2018-03-24T11:35:53.711Z,11.43
2018-03-24T11:36:53.716Z,11.77
2018-03-24T11:37:53.727Z,12.20
2018-03-24T11:38:53.830Z,11.74
2018-03-24T11:39:53.769Z,12.02
2018-03-24T11:40:53.776Z,12.15
2018-03-24T11:41:53.802Z,12.06
2018-03-24T11:42:53.821Z,11.52
2018-03-24T11:43:53.881Z,11.65
2018-03-24T11:44:53.958Z,12.21
2018-03-24T11:45:53.875Z,11.71
2018-03-24T11:46:53.879Z,11.86
2018-03-24T11:47:53.881Z,11.49
2018-03-24T11:48:53.930Z,11.47
2018-03-24T11:49:53.932Z,11.21
2018-03-24T11:50:54.415Z,11.34
2018-03-24T11:51:53.950Z,11.43
2018-03-24T11:52:54.006Z,11.25
2018-03-24T11:53:54.026Z,11.41
2018-03-24T11:54:54.000Z,11.68
2018-03-24T11:55:54.019Z,12.23
2018-03-24T11:56:54.030Z,12.16
2018-03-24T11:57:54.048Z,11.27
2018-03-24T11:58:54.092Z,11.71
2018-03-24T11:59:54.058Z,11.94
2018-03-24T12:00:54.100Z,12.88
2018-03-24T12:01:54.119Z,13.95
2018-03-24T12:02:54.113Z,12.87
2018-03-24T12:03:54.165Z,12.39
2018-03-24T12:04:54.202Z,12.52
2018-03-24T12:05:54.159Z,12.11
2018-03-24T12:06:54.212Z,12.13
2018-03-24T12:07:54.199Z,13.22
2018-03-24T12:08:54.252Z,13.74
2018-03-24T12:09:54.224Z,12.71
2018-03-24T12:10:54.229Z,12.45
2018-03-24T12:11:54.249Z,12.06
2018-03-24T12:12:54.270Z,12.09
2018-03-24T12:13:54.322Z,11.87
2018-03-24T12:14:54.347Z,11.93
2018-03-24T12:15:54.317Z,11.80
2018-03-24T12:16:54.326Z,11.94
2018-03-24T12:17:54.346Z,12.13
2018-03-24T12:18:54.419Z,11.57
2018-03-24T12:19:54.414Z,11.59
2018-03-24T12:20:54.420Z,11.71
2018-03-24T12:21:54.465Z,11.96
2018-03-24T12:22:54.408Z,11.38
2018-03-24T12:23:54.473Z,11.52
2018-03-24T12:24:54.529Z,11.31
2018-03-24T12:25:54.472Z,11.41
2018-03-24T12:26:54.494Z,11.93
2018-03-24T12:27:54.501Z,12.21
2018-03-24T12:28:54.488Z,12.38
2018-03-24T12:29:54.573Z,12.21
2018-03-24T12:30:54.538Z,11.97
2018-03-24T12:31:54.553Z,11.89
2018-03-24T12:32:54.602Z,12.21
2018-03-24T12:33:54.620Z,11.72
2018-03-24T12:34:54.582Z,11.13
2018-03-24T12:35:54.607Z,11.27
2018-03-24T12:36:54.638Z,11.07
2018-03-24T12:37:54.634Z,11.25
2018-03-24T12:38:54.688Z,11.27
2018-03-24T12:39:54.685Z,12.27
2018-03-24T12:40:54.688Z,12.84
2018-03-24T12:41:54.681Z,11.71
2018-03-24T12:42:54.711Z,12.52
2018-03-24T12:43:54.749Z,11.21
2018-03-24T12:44:54.837Z,11.01
2018-03-24T12:45:54.737Z,11.14
2018-03-24T12:46:54.742Z,12.19
2018-03-24T12:47:54.784Z,12.92
2018-03-24T12:48:54.832Z,13.43
2018-03-24T12:49:54.811Z,13.32
2018-03-24T12:50:54.824Z,12.88
2018-03-24T12:51:54.838Z,12.74
2018-03-24T12:52:54.856Z,12.38
2018-03-24T12:53:54.904Z,13.15
2018-03-24T12:54:54.884Z,13.91
2018-03-24T12:55:54.881Z,12.60
2018-03-24T12:56:54.897Z,12.48
2018-03-24T12:57:54.924Z,12.37
2018-03-24T12:58:54.982Z,12.92
2018-03-24T12:59:54.968Z,12.92
2018-03-24T13:00:54.949Z,12.93
2018-03-24T13:01:54.962Z,12.70
2018-03-24T13:02:54.980Z,12.57
2018-03-24T13:03:55.036Z,12.48
2018-03-24T13:04:56.583Z,12.49
2018-03-24T13:05:55.037Z,12.54
2018-03-24T13:06:55.051Z,12.15